sensor_id;sensor_type;location;lat;lon;timestamp;temperature;humidity
79049;DHT22;68680;50.764;6.120;2024-01-25T00:00:55;8.50;99.90
79049;DHT22;68680;50.764;6.120;2024-01-25T00:03:21;8.50;99.90
79049;DHT22;68680;50.764;6.120;2024-01-25T00:05:47;8.40;99.90
79049;DHT22;68680;50.764;6.120;2024-01-25T00:08:13;8.40;99.90
79049;DHT22;68680;50.764;6.120;2024-01-25T00:10:39;8.50;99.90
79049;DHT22;68680;50.764;6.120;2024-01-25T00:13:05;8.50;99.90
79049;DHT22;68680;50.764;6.120;2024-01-25T00:15:32;8.50;99.90
79049;DHT22;68680;50.764;6.120;2024-01-25T00:17:58;8.50;99.90
79049;DHT22;68680;50.764;6.120;2024-01-25T00:20:23;8.50;99.90
79049;DHT22;68680;50.764;6.120;2024-01-25T00:22:49;8.40;99.90
79049;DHT22;68680;50.764;6.120;2024-01-25T00:25:15;8.40;99.90
79049;DHT22;68680;50.764;6.120;2024-01-25T00:27:41;8.40;99.90
79049;DHT22;68680;50.764;6.120;2024-01-25T00:30:07;8.40;99.90
79049;DHT22;68680;50.764;6.120;2024-01-25T00:32:35;8.50;99.90
79049;DHT22;68680;50.764;6.120;2024-01-25T00:35:02;8.40;99.90
79049;DHT22;68680;50.764;6.120;2024-01-25T00:37:29;8.40;99.90
79049;DHT22;68680;50.764;6.120;2024-01-25T00:39:55;8.40;99.90
79049;DHT22;68680;50.764;6.120;2024-01-25T00:42:22;8.40;99.90
79049;DHT22;68680;50.764;6.120;2024-01-25T00:44:49;8.40;99.90
79049;DHT22;68680;50.764;6.120;2024-01-25T00:47:16;8.40;99.90
79049;DHT22;68680;50.764;6.120;2024-01-25T00:49:44;8.40;99.90
79049;DHT22;68680;50.764;6.120;2024-01-25T00:52:11;8.40;99.90
79049;DHT22;68680;50.764;6.120;2024-01-25T00:54:37;8.30;99.90
79049;DHT22;68680;50.764;6.120;2024-01-25T00:57:04;8.30;99.90
79049;DHT22;68680;50.764;6.120;2024-01-25T00:59:31;8.40;99.90
79049;DHT22;68680;50.764;6.120;2024-01-25T01:01:58;8.40;99.90
79049;DHT22;68680;50.764;6.120;2024-01-25T01:04:26;8.40;99.90
79049;DHT22;68680;50.764;6.120;2024-01-25T01:06:54;8.40;99.90
79049;DHT22;68680;50.764;6.120;2024-01-25T01:09:20;8.40;99.90
79049;DHT22;68680;50.764;6.120;2024-01-25T01:11:47;8.30;99.90
79049;DHT22;68680;50.764;6.120;2024-01-25T01:14:12;8.20;99.90
79049;DHT22;68680;50.764;6.120;2024-01-25T01:16:38;8.20;99.90
79049;DHT22;68680;50.764;6.120;2024-01-25T01:19:04;8.20;99.90
79049;DHT22;68680;50.764;6.120;2024-01-25T01:21:30;8.20;99.90
79049;DHT22;68680;50.764;6.120;2024-01-25T01:23:57;8.20;99.90
79049;DHT22;68680;50.764;6.120;2024-01-25T01:26:22;8.20;99.90
79049;DHT22;68680;50.764;6.120;2024-01-25T01:28:48;8.20;99.90
79049;DHT22;68680;50.764;6.120;2024-01-25T01:31:14;8.20;99.90
79049;DHT22;68680;50.764;6.120;2024-01-25T01:33:40;8.20;99.90
79049;DHT22;68680;50.764;6.120;2024-01-25T01:36:06;8.20;99.90
79049;DHT22;68680;50.764;6.120;2024-01-25T01:38:32;8.20;99.90
79049;DHT22;68680;50.764;6.120;2024-01-25T01:40:59;8.20;99.90
79049;DHT22;68680;50.764;6.120;2024-01-25T01:43:25;8.20;99.90
79049;DHT22;68680;50.764;6.120;2024-01-25T01:45:51;8.20;99.90
79049;DHT22;68680;50.764;6.120;2024-01-25T01:48:17;8.20;99.90
79049;DHT22;68680;50.764;6.120;2024-01-25T01:50:43;8.20;99.90
79049;DHT22;68680;50.764;6.120;2024-01-25T01:53:10;8.20;99.90
79049;DHT22;68680;50.764;6.120;2024-01-25T01:55:36;8.10;99.90
79049;DHT22;68680;50.764;6.120;2024-01-25T01:58:04;8.20;99.90
79049;DHT22;68680;50.764;6.120;2024-01-25T02:00:30;8.20;99.90
79049;DHT22;68680;50.764;6.120;2024-01-25T02:02:59;8.20;99.90
79049;DHT22;68680;50.764;6.120;2024-01-25T02:05:25;8.20;99.90
79049;DHT22;68680;50.764;6.120;2024-01-25T02:07:50;8.20;99.90
79049;DHT22;68680;50.764;6.120;2024-01-25T02:10:17;8.20;99.90
79049;DHT22;68680;50.764;6.120;2024-01-25T02:12:43;8.10;99.90
79049;DHT22;68680;50.764;6.120;2024-01-25T02:15:10;8.10;99.90
79049;DHT22;68680;50.764;6.120;2024-01-25T02:17:36;8.10;99.90
79049;DHT22;68680;50.764;6.120;2024-01-25T02:20:02;8.10;99.90
79049;DHT22;68680;50.764;6.120;2024-01-25T02:22:29;8.10;99.90
79049;DHT22;68680;50.764;6.120;2024-01-25T02:24:55;8.10;99.90
79049;DHT22;68680;50.764;6.120;2024-01-25T02:27:21;8.10;99.90
79049;DHT22;68680;50.764;6.120;2024-01-25T02:29:47;8.10;99.90
79049;DHT22;68680;50.764;6.120;2024-01-25T02:32:13;8.10;99.90
79049;DHT22;68680;50.764;6.120;2024-01-25T02:34:38;8.10;99.90
79049;DHT22;68680;50.764;6.120;2024-01-25T02:37:04;8.00;99.90
79049;DHT22;68680;50.764;6.120;2024-01-25T02:39:31;8.00;99.90
79049;DHT22;68680;50.764;6.120;2024-01-25T02:41:57;8.00;99.90
79049;DHT22;68680;50.764;6.120;2024-01-25T02:44:23;8.00;99.90
79049;DHT22;68680;50.764;6.120;2024-01-25T02:46:48;7.90;99.90
79049;DHT22;68680;50.764;6.120;2024-01-25T02:49:14;8.00;99.90
79049;DHT22;68680;50.764;6.120;2024-01-25T02:51:40;8.00;99.90
79049;DHT22;68680;50.764;6.120;2024-01-25T02:54:06;8.00;99.90
79049;DHT22;68680;50.764;6.120;2024-01-25T02:56:33;8.00;99.90
79049;DHT22;68680;50.764;6.120;2024-01-25T02:58:58;7.90;99.90
79049;DHT22;68680;50.764;6.120;2024-01-25T03:01:24;7.90;99.90
79049;DHT22;68680;50.764;6.120;2024-01-25T03:03:50;7.90;99.90
79049;DHT22;68680;50.764;6.120;2024-01-25T03:06:16;7.80;99.90
79049;DHT22;68680;50.764;6.120;2024-01-25T03:08:41;7.90;99.90
79049;DHT22;68680;50.764;6.120;2024-01-25T03:11:07;7.80;99.90
79049;DHT22;68680;50.764;6.120;2024-01-25T03:13:34;7.80;99.90
79049;DHT22;68680;50.764;6.120;2024-01-25T03:16:00;7.80;99.90
79049;DHT22;68680;50.764;6.120;2024-01-25T03:18:26;7.70;99.90
79049;DHT22;68680;50.764;6.120;2024-01-25T03:20:52;7.70;99.90
79049;DHT22;68680;50.764;6.120;2024-01-25T03:23:17;7.70;99.90
79049;DHT22;68680;50.764;6.120;2024-01-25T03:25:43;7.60;99.90
79049;DHT22;68680;50.764;6.120;2024-01-25T03:28:09;7.60;99.90
79049;DHT22;68680;50.764;6.120;2024-01-25T03:30:36;7.60;99.90
79049;DHT22;68680;50.764;6.120;2024-01-25T03:33:02;7.60;99.90
79049;DHT22;68680;50.764;6.120;2024-01-25T03:35:28;7.60;99.90
79049;DHT22;68680;50.764;6.120;2024-01-25T03:37:53;7.50;99.90
79049;DHT22;68680;50.764;6.120;2024-01-25T03:40:19;7.50;99.90
79049;DHT22;68680;50.764;6.120;2024-01-25T03:42:45;7.50;99.90
79049;DHT22;68680;50.764;6.120;2024-01-25T03:45:11;7.50;99.90
79049;DHT22;68680;50.764;6.120;2024-01-25T03:47:38;7.40;99.90
79049;DHT22;68680;50.764;6.120;2024-01-25T03:50:04;7.40;99.90
79049;DHT22;68680;50.764;6.120;2024-01-25T03:52:30;7.30;99.90
79049;DHT22;68680;50.764;6.120;2024-01-25T03:54:56;7.30;99.90
79049;DHT22;68680;50.764;6.120;2024-01-25T03:57:22;7.20;99.90
79049;DHT22;68680;50.764;6.120;2024-01-25T03:59:48;7.20;99.90
79049;DHT22;68680;50.764;6.120;2024-01-25T04:02:13;7.10;99.90
79049;DHT22;68680;50.764;6.120;2024-01-25T04:04:41;7.00;99.90
79049;DHT22;68680;50.764;6.120;2024-01-25T04:07:06;7.00;99.90
79049;DHT22;68680;50.764;6.120;2024-01-25T04:09:32;7.00;99.90
79049;DHT22;68680;50.764;6.120;2024-01-25T04:11:58;7.00;99.90
79049;DHT22;68680;50.764;6.120;2024-01-25T04:14:23;6.90;99.90
79049;DHT22;68680;50.764;6.120;2024-01-25T04:16:49;6.90;99.90
79049;DHT22;68680;50.764;6.120;2024-01-25T04:19:15;6.80;99.90
79049;DHT22;68680;50.764;6.120;2024-01-25T04:21:42;6.90;99.90
79049;DHT22;68680;50.764;6.120;2024-01-25T04:24:08;6.80;99.90
79049;DHT22;68680;50.764;6.120;2024-01-25T04:26:34;6.80;99.90
79049;DHT22;68680;50.764;6.120;2024-01-25T04:28:59;6.80;99.90
79049;DHT22;68680;50.764;6.120;2024-01-25T04:31:25;6.70;99.90
79049;DHT22;68680;50.764;6.120;2024-01-25T04:33:51;6.70;99.90
79049;DHT22;68680;50.764;6.120;2024-01-25T04:36:17;6.80;99.90
79049;DHT22;68680;50.764;6.120;2024-01-25T04:38:44;6.80;99.90
79049;DHT22;68680;50.764;6.120;2024-01-25T04:41:10;6.80;99.90
79049;DHT22;68680;50.764;6.120;2024-01-25T04:43:35;6.70;99.90
79049;DHT22;68680;50.764;6.120;2024-01-25T04:46:02;6.70;99.90
79049;DHT22;68680;50.764;6.120;2024-01-25T04:48:28;6.70;99.90
79049;DHT22;68680;50.764;6.120;2024-01-25T04:50:54;6.70;99.90
79049;DHT22;68680;50.764;6.120;2024-01-25T04:53:19;6.60;99.90
79049;DHT22;68680;50.764;6.120;2024-01-25T04:55:47;6.60;99.90
79049;DHT22;68680;50.764;6.120;2024-01-25T04:58:12;6.50;99.90
79049;DHT22;68680;50.764;6.120;2024-01-25T05:00:38;6.50;99.90
79049;DHT22;68680;50.764;6.120;2024-01-25T05:03:04;6.40;99.90
79049;DHT22;68680;50.764;6.120;2024-01-25T05:05:30;6.40;99.90
79049;DHT22;68680;50.764;6.120;2024-01-25T05:07:56;6.40;99.90
79049;DHT22;68680;50.764;6.120;2024-01-25T05:10:22;6.40;99.90
79049;DHT22;68680;50.764;6.120;2024-01-25T05:12:49;6.40;99.90
79049;DHT22;68680;50.764;6.120;2024-01-25T05:15:15;6.40;99.90
79049;DHT22;68680;50.764;6.120;2024-01-25T05:17:40;6.30;99.90
79049;DHT22;68680;50.764;6.120;2024-01-25T05:20:07;6.40;99.90
79049;DHT22;68680;50.764;6.120;2024-01-25T05:22:33;6.30;99.90
79049;DHT22;68680;50.764;6.120;2024-01-25T05:24:59;6.30;99.90
79049;DHT22;68680;50.764;6.120;2024-01-25T05:27:24;6.30;99.90
79049;DHT22;68680;50.764;6.120;2024-01-25T05:29:51;6.30;99.90
79049;DHT22;68680;50.764;6.120;2024-01-25T05:32:17;6.20;99.90
79049;DHT22;68680;50.764;6.120;2024-01-25T05:34:43;6.30;99.90
79049;DHT22;68680;50.764;6.120;2024-01-25T05:37:08;6.20;99.90
79049;DHT22;68680;50.764;6.120;2024-01-25T05:39:34;6.20;99.90
79049;DHT22;68680;50.764;6.120;2024-01-25T05:42:00;6.10;99.90
79049;DHT22;68680;50.764;6.120;2024-01-25T05:44:26;6.10;99.90
79049;DHT22;68680;50.764;6.120;2024-01-25T05:46:53;6.10;99.90
79049;DHT22;68680;50.764;6.120;2024-01-25T05:49:18;6.20;99.90
79049;DHT22;68680;50.764;6.120;2024-01-25T05:51:44;6.20;99.90
79049;DHT22;68680;50.764;6.120;2024-01-25T05:54:10;6.20;99.90
79049;DHT22;68680;50.764;6.120;2024-01-25T05:56:36;6.30;99.90
79049;DHT22;68680;50.764;6.120;2024-01-25T05:59:01;6.30;99.90
79049;DHT22;68680;50.764;6.120;2024-01-25T06:01:27;6.30;99.90
79049;DHT22;68680;50.764;6.120;2024-01-25T06:03:54;6.30;99.90
79049;DHT22;68680;50.764;6.120;2024-01-25T06:06:20;6.30;99.90
79049;DHT22;68680;50.764;6.120;2024-01-25T06:08:46;6.20;99.90
79049;DHT22;68680;50.764;6.120;2024-01-25T06:11:11;6.20;99.90
79049;DHT22;68680;50.764;6.120;2024-01-25T06:13:37;6.20;99.90
79049;DHT22;68680;50.764;6.120;2024-01-25T06:16:03;6.20;99.90
79049;DHT22;68680;50.764;6.120;2024-01-25T06:18:29;6.20;99.90
79049;DHT22;68680;50.764;6.120;2024-01-25T06:20:56;6.20;99.90
79049;DHT22;68680;50.764;6.120;2024-01-25T06:23:22;6.20;99.90
79049;DHT22;68680;50.764;6.120;2024-01-25T06:25:48;6.20;99.90
79049;DHT22;68680;50.764;6.120;2024-01-25T06:28:14;6.20;99.90
79049;DHT22;68680;50.764;6.120;2024-01-25T06:30:39;6.20;99.90
79049;DHT22;68680;50.764;6.120;2024-01-25T06:33:05;6.10;99.90
79049;DHT22;68680;50.764;6.120;2024-01-25T06:35:31;6.10;99.90
79049;DHT22;68680;50.764;6.120;2024-01-25T06:37:58;6.00;99.90
79049;DHT22;68680;50.764;6.120;2024-01-25T06:40:24;6.00;99.90
79049;DHT22;68680;50.764;6.120;2024-01-25T06:42:49;5.90;99.90
79049;DHT22;68680;50.764;6.120;2024-01-25T06:45:15;5.80;99.90
79049;DHT22;68680;50.764;6.120;2024-01-25T06:47:41;5.90;99.90
79049;DHT22;68680;50.764;6.120;2024-01-25T06:50:08;5.80;99.90
79049;DHT22;68680;50.764;6.120;2024-01-25T06:52:34;5.80;99.90
79049;DHT22;68680;50.764;6.120;2024-01-25T06:55:01;5.70;99.90
79049;DHT22;68680;50.764;6.120;2024-01-25T06:57:27;5.70;99.90
79049;DHT22;68680;50.764;6.120;2024-01-25T06:59:52;5.70;99.90
79049;DHT22;68680;50.764;6.120;2024-01-25T07:02:18;5.70;99.90
79049;DHT22;68680;50.764;6.120;2024-01-25T07:04:44;5.70;99.90
79049;DHT22;68680;50.764;6.120;2024-01-25T07:07:09;5.70;99.90
79049;DHT22;68680;50.764;6.120;2024-01-25T07:09:35;5.60;99.90
79049;DHT22;68680;50.764;6.120;2024-01-25T07:12:03;5.60;99.90
79049;DHT22;68680;50.764;6.120;2024-01-25T07:14:29;5.60;99.90
79049;DHT22;68680;50.764;6.120;2024-01-25T07:16:55;5.60;99.90
79049;DHT22;68680;50.764;6.120;2024-01-25T07:19:20;5.60;99.90
79049;DHT22;68680;50.764;6.120;2024-01-25T07:21:46;5.60;99.90
79049;DHT22;68680;50.764;6.120;2024-01-25T07:24:12;5.60;99.90
79049;DHT22;68680;50.764;6.120;2024-01-25T07:26:37;5.60;99.90
79049;DHT22;68680;50.764;6.120;2024-01-25T07:29:05;5.70;99.90
79049;DHT22;68680;50.764;6.120;2024-01-25T07:31:30;5.90;99.90
79049;DHT22;68680;50.764;6.120;2024-01-25T07:33:56;5.90;99.90
79049;DHT22;68680;50.764;6.120;2024-01-25T07:36:22;6.00;99.90
79049;DHT22;68680;50.764;6.120;2024-01-25T07:38:48;6.10;99.90
79049;DHT22;68680;50.764;6.120;2024-01-25T07:41:14;6.10;99.90
79049;DHT22;68680;50.764;6.120;2024-01-25T07:43:40;6.20;99.90
79049;DHT22;68680;50.764;6.120;2024-01-25T07:46:08;6.20;99.90
79049;DHT22;68680;50.764;6.120;2024-01-25T07:48:34;6.30;99.90
79049;DHT22;68680;50.764;6.120;2024-01-25T07:50:59;6.30;99.90
79049;DHT22;68680;50.764;6.120;2024-01-25T07:53:25;6.30;99.90
79049;DHT22;68680;50.764;6.120;2024-01-25T07:55:51;6.30;99.90
79049;DHT22;68680;50.764;6.120;2024-01-25T07:58:17;6.40;99.90
79049;DHT22;68680;50.764;6.120;2024-01-25T08:00:42;6.40;99.90
79049;DHT22;68680;50.764;6.120;2024-01-25T08:03:09;6.40;99.90
79049;DHT22;68680;50.764;6.120;2024-01-25T08:05:35;6.50;99.90
79049;DHT22;68680;50.764;6.120;2024-01-25T08:08:01;6.50;99.90
79049;DHT22;68680;50.764;6.120;2024-01-25T08:10:27;6.50;99.90
79049;DHT22;68680;50.764;6.120;2024-01-25T08:12:52;6.50;99.90
79049;DHT22;68680;50.764;6.120;2024-01-25T08:15:18;6.40;99.90
79049;DHT22;68680;50.764;6.120;2024-01-25T08:17:44;6.40;99.90
79049;DHT22;68680;50.764;6.120;2024-01-25T08:20:12;6.40;99.90
79049;DHT22;68680;50.764;6.120;2024-01-25T08:22:37;6.50;99.90
79049;DHT22;68680;50.764;6.120;2024-01-25T08:25:04;6.50;99.90
79049;DHT22;68680;50.764;6.120;2024-01-25T08:27:30;6.50;99.90
79049;DHT22;68680;50.764;6.120;2024-01-25T08:29:56;6.50;99.90
79049;DHT22;68680;50.764;6.120;2024-01-25T08:32:22;6.60;99.90
79049;DHT22;68680;50.764;6.120;2024-01-25T08:34:47;6.70;99.90
79049;DHT22;68680;50.764;6.120;2024-01-25T08:37:15;6.70;99.90
79049;DHT22;68680;50.764;6.120;2024-01-25T08:39:40;6.80;99.90
79049;DHT22;68680;50.764;6.120;2024-01-25T08:42:06;6.80;99.90
79049;DHT22;68680;50.764;6.120;2024-01-25T08:44:33;6.90;99.90
79049;DHT22;68680;50.764;6.120;2024-01-25T08:46:59;6.90;99.90
79049;DHT22;68680;50.764;6.120;2024-01-25T08:49:24;6.90;99.90
79049;DHT22;68680;50.764;6.120;2024-01-25T08:51:50;6.90;99.90
79049;DHT22;68680;50.764;6.120;2024-01-25T08:54:17;6.90;99.90
79049;DHT22;68680;50.764;6.120;2024-01-25T08:56:43;7.00;99.90
79049;DHT22;68680;50.764;6.120;2024-01-25T08:59:09;7.00;99.90
79049;DHT22;68680;50.764;6.120;2024-01-25T09:01:34;7.10;99.90
79049;DHT22;68680;50.764;6.120;2024-01-25T09:04:00;7.10;99.90
79049;DHT22;68680;50.764;6.120;2024-01-25T09:06:26;7.20;99.90
79049;DHT22;68680;50.764;6.120;2024-01-25T09:08:51;7.30;99.90
79049;DHT22;68680;50.764;6.120;2024-01-25T09:11:19;7.40;99.90
79049;DHT22;68680;50.764;6.120;2024-01-25T09:13:44;7.40;99.90
79049;DHT22;68680;50.764;6.120;2024-01-25T09:16:10;7.30;99.90
79049;DHT22;68680;50.764;6.120;2024-01-25T09:18:36;7.30;99.90
79049;DHT22;68680;50.764;6.120;2024-01-25T09:21:02;7.30;99.90
79049;DHT22;68680;50.764;6.120;2024-01-25T09:23:28;7.30;99.90
79049;DHT22;68680;50.764;6.120;2024-01-25T09:25:53;7.40;99.90
79049;DHT22;68680;50.764;6.120;2024-01-25T09:28:20;7.40;99.90
79049;DHT22;68680;50.764;6.120;2024-01-25T09:30:46;7.40;99.90
79049;DHT22;68680;50.764;6.120;2024-01-25T09:33:12;7.40;99.90
79049;DHT22;68680;50.764;6.120;2024-01-25T09:35:39;7.40;99.90
79049;DHT22;68680;50.764;6.120;2024-01-25T09:38:04;7.40;99.90
79049;DHT22;68680;50.764;6.120;2024-01-25T09:40:30;7.40;99.90
79049;DHT22;68680;50.764;6.120;2024-01-25T09:42:56;7.50;99.90
79049;DHT22;68680;50.764;6.120;2024-01-25T09:45:24;7.50;99.90
79049;DHT22;68680;50.764;6.120;2024-01-25T09:47:50;7.50;99.90
79049;DHT22;68680;50.764;6.120;2024-01-25T09:50:16;7.50;99.90
79049;DHT22;68680;50.764;6.120;2024-01-25T09:52:43;7.60;99.90
79049;DHT22;68680;50.764;6.120;2024-01-25T09:55:11;7.60;99.90
79049;DHT22;68680;50.764;6.120;2024-01-25T09:57:38;7.60;99.90
79049;DHT22;68680;50.764;6.120;2024-01-25T10:00:05;7.70;99.90
79049;DHT22;68680;50.764;6.120;2024-01-25T10:02:33;7.80;99.90
79049;DHT22;68680;50.764;6.120;2024-01-25T10:04:59;7.80;99.90
79049;DHT22;68680;50.764;6.120;2024-01-25T10:07:38;7.90;99.90
79049;DHT22;68680;50.764;6.120;2024-01-25T10:10:05;8.00;99.90
79049;DHT22;68680;50.764;6.120;2024-01-25T10:12:32;8.10;99.90
79049;DHT22;68680;50.764;6.120;2024-01-25T10:14:58;8.00;99.90
79049;DHT22;68680;50.764;6.120;2024-01-25T10:17:23;8.00;99.90
79049;DHT22;68680;50.764;6.120;2024-01-25T10:19:51;8.10;99.90
79049;DHT22;68680;50.764;6.120;2024-01-25T10:22:17;8.10;99.90
79049;DHT22;68680;50.764;6.120;2024-01-25T10:24:43;8.20;99.90
79049;DHT22;68680;50.764;6.120;2024-01-25T10:27:09;8.20;99.90
79049;DHT22;68680;50.764;6.120;2024-01-25T10:29:36;8.30;99.90
79049;DHT22;68680;50.764;6.120;2024-01-25T10:32:03;8.40;99.90
79049;DHT22;68680;50.764;6.120;2024-01-25T10:34:30;8.50;99.90
79049;DHT22;68680;50.764;6.120;2024-01-25T10:36:58;8.50;99.90
79049;DHT22;68680;50.764;6.120;2024-01-25T10:39:24;8.50;99.90
79049;DHT22;68680;50.764;6.120;2024-01-25T10:41:50;8.50;99.90
79049;DHT22;68680;50.764;6.120;2024-01-25T10:44:16;8.40;99.90
79049;DHT22;68680;50.764;6.120;2024-01-25T10:46:42;8.50;99.90
79049;DHT22;68680;50.764;6.120;2024-01-25T10:49:12;8.60;99.90
79049;DHT22;68680;50.764;6.120;2024-01-25T10:51:39;8.70;99.90
79049;DHT22;68680;50.764;6.120;2024-01-25T10:54:07;8.80;99.90
79049;DHT22;68680;50.764;6.120;2024-01-25T10:56:34;8.80;99.90
79049;DHT22;68680;50.764;6.120;2024-01-25T10:59:01;8.80;99.90
79049;DHT22;68680;50.764;6.120;2024-01-25T11:01:27;8.80;99.90
79049;DHT22;68680;50.764;6.120;2024-01-25T11:03:53;8.90;99.90
79049;DHT22;68680;50.764;6.120;2024-01-25T11:06:20;9.00;99.90
79049;DHT22;68680;50.764;6.120;2024-01-25T11:08:47;9.10;99.90
79049;DHT22;68680;50.764;6.120;2024-01-25T11:11:15;9.10;99.90
79049;DHT22;68680;50.764;6.120;2024-01-25T11:13:42;9.20;99.90
79049;DHT22;68680;50.764;6.120;2024-01-25T11:16:13;9.10;99.90
79049;DHT22;68680;50.764;6.120;2024-01-25T11:18:50;9.10;99.90
79049;DHT22;68680;50.764;6.120;2024-01-25T11:21:25;9.20;99.90
79049;DHT22;68680;50.764;6.120;2024-01-25T11:23:59;9.40;99.90
79049;DHT22;68680;50.764;6.120;2024-01-25T11:26:27;9.40;99.90
79049;DHT22;68680;50.764;6.120;2024-01-25T11:28:53;9.50;99.90
79049;DHT22;68680;50.764;6.120;2024-01-25T11:31:19;9.50;99.90
79049;DHT22;68680;50.764;6.120;2024-01-25T11:33:45;9.50;99.90
79049;DHT22;68680;50.764;6.120;2024-01-25T11:36:11;9.50;99.90
79049;DHT22;68680;50.764;6.120;2024-01-25T11:38:37;9.40;99.90
79049;DHT22;68680;50.764;6.120;2024-01-25T11:41:03;9.50;99.90
79049;DHT22;68680;50.764;6.120;2024-01-25T11:43:30;9.60;99.90
79049;DHT22;68680;50.764;6.120;2024-01-25T11:45:56;9.80;99.90
79049;DHT22;68680;50.764;6.120;2024-01-25T11:48:21;9.80;99.90
79049;DHT22;68680;50.764;6.120;2024-01-25T11:50:47;9.90;99.90
79049;DHT22;68680;50.764;6.120;2024-01-25T11:53:13;9.90;99.90
79049;DHT22;68680;50.764;6.120;2024-01-25T11:55:39;9.80;99.90
79049;DHT22;68680;50.764;6.120;2024-01-25T11:58:05;9.80;99.90
79049;DHT22;68680;50.764;6.120;2024-01-25T12:00:32;9.80;99.90
79049;DHT22;68680;50.764;6.120;2024-01-25T12:02:58;9.90;99.90
79049;DHT22;68680;50.764;6.120;2024-01-25T12:05:24;10.00;99.90
79049;DHT22;68680;50.764;6.120;2024-01-25T12:07:51;10.10;99.90
79049;DHT22;68680;50.764;6.120;2024-01-25T12:10:17;10.10;99.90
79049;DHT22;68680;50.764;6.120;2024-01-25T12:12:43;10.10;99.90
79049;DHT22;68680;50.764;6.120;2024-01-25T12:15:09;10.10;99.90
79049;DHT22;68680;50.764;6.120;2024-01-25T12:17:36;10.10;99.90
79049;DHT22;68680;50.764;6.120;2024-01-25T12:20:02;10.00;99.90
79049;DHT22;68680;50.764;6.120;2024-01-25T12:22:29;10.00;99.90
79049;DHT22;68680;50.764;6.120;2024-01-25T12:24:55;10.10;99.90
79049;DHT22;68680;50.764;6.120;2024-01-25T12:27:23;10.20;99.90
79049;DHT22;68680;50.764;6.120;2024-01-25T12:29:50;10.20;99.90
79049;DHT22;68680;50.764;6.120;2024-01-25T12:32:16;10.20;99.90
79049;DHT22;68680;50.764;6.120;2024-01-25T12:34:52;10.10;99.90
79049;DHT22;68680;50.764;6.120;2024-01-25T12:37:19;10.20;99.90
79049;DHT22;68680;50.764;6.120;2024-01-25T12:39:44;10.40;99.90
79049;DHT22;68680;50.764;6.120;2024-01-25T12:42:10;10.40;99.90
79049;DHT22;68680;50.764;6.120;2024-01-25T12:44:36;10.40;99.90
79049;DHT22;68680;50.764;6.120;2024-01-25T12:47:02;10.30;99.90
79049;DHT22;68680;50.764;6.120;2024-01-25T12:49:28;10.40;99.90
79049;DHT22;68680;50.764;6.120;2024-01-25T12:51:55;10.40;99.90
79049;DHT22;68680;50.764;6.120;2024-01-25T12:54:21;10.50;99.90
79049;DHT22;68680;50.764;6.120;2024-01-25T12:56:47;10.60;99.90
79049;DHT22;68680;50.764;6.120;2024-01-25T12:59:13;10.60;99.90
79049;DHT22;68680;50.764;6.120;2024-01-25T13:01:38;10.70;99.90
79049;DHT22;68680;50.764;6.120;2024-01-25T13:04:04;10.70;99.90
79049;DHT22;68680;50.764;6.120;2024-01-25T13:06:30;10.60;99.90
79049;DHT22;68680;50.764;6.120;2024-01-25T13:08:57;10.60;99.90
79049;DHT22;68680;50.764;6.120;2024-01-25T13:11:23;10.60;99.90
79049;DHT22;68680;50.764;6.120;2024-01-25T13:13:49;10.60;99.90
79049;DHT22;68680;50.764;6.120;2024-01-25T13:16:15;10.40;99.90
79049;DHT22;68680;50.764;6.120;2024-01-25T13:18:41;10.40;99.90
79049;DHT22;68680;50.764;6.120;2024-01-25T13:21:06;10.30;99.90
79049;DHT22;68680;50.764;6.120;2024-01-25T13:23:32;10.30;99.90
79049;DHT22;68680;50.764;6.120;2024-01-25T13:25:59;10.30;99.90
79049;DHT22;68680;50.764;6.120;2024-01-25T13:28:25;10.30;99.90
79049;DHT22;68680;50.764;6.120;2024-01-25T13:30:51;10.30;99.90
79049;DHT22;68680;50.764;6.120;2024-01-25T13:33:16;10.30;99.90
79049;DHT22;68680;50.764;6.120;2024-01-25T13:35:42;10.20;99.90
79049;DHT22;68680;50.764;6.120;2024-01-25T13:38:08;10.20;99.90
79049;DHT22;68680;50.764;6.120;2024-01-25T13:40:33;10.20;99.90
79049;DHT22;68680;50.764;6.120;2024-01-25T13:43:01;10.20;99.90
79049;DHT22;68680;50.764;6.120;2024-01-25T13:45:26;10.20;99.90
79049;DHT22;68680;50.764;6.120;2024-01-25T13:47:52;10.10;99.90
79049;DHT22;68680;50.764;6.120;2024-01-25T13:50:18;10.00;99.90
79049;DHT22;68680;50.764;6.120;2024-01-25T13:52:44;10.00;99.90
79049;DHT22;68680;50.764;6.120;2024-01-25T13:55:09;10.00;99.90
79049;DHT22;68680;50.764;6.120;2024-01-25T13:57:35;9.90;99.90
79049;DHT22;68680;50.764;6.120;2024-01-25T14:00:03;9.90;99.90
79049;DHT22;68680;50.764;6.120;2024-01-25T14:02:29;9.80;99.90
79049;DHT22;68680;50.764;6.120;2024-01-25T14:04:54;9.70;99.90
79049;DHT22;68680;50.764;6.120;2024-01-25T14:07:20;9.60;99.90
79049;DHT22;68680;50.764;6.120;2024-01-25T14:09:46;9.50;99.90
79049;DHT22;68680;50.764;6.120;2024-01-25T14:12:12;9.40;99.90
79049;DHT22;68680;50.764;6.120;2024-01-25T14:14:38;9.40;99.90
79049;DHT22;68680;50.764;6.120;2024-01-25T14:17:05;9.40;99.90
79049;DHT22;68680;50.764;6.120;2024-01-25T14:19:30;9.40;99.90
79049;DHT22;68680;50.764;6.120;2024-01-25T14:21:56;9.30;99.90
79049;DHT22;68680;50.764;6.120;2024-01-25T14:24:22;9.30;99.90
79049;DHT22;68680;50.764;6.120;2024-01-25T14:26:48;9.30;99.90
79049;DHT22;68680;50.764;6.120;2024-01-25T14:29:13;9.30;99.90
79049;DHT22;68680;50.764;6.120;2024-01-25T14:31:39;9.20;99.90
79049;DHT22;68680;50.764;6.120;2024-01-25T14:34:06;9.00;99.90
79049;DHT22;68680;50.764;6.120;2024-01-25T14:36:32;8.90;99.90
79049;DHT22;68680;50.764;6.120;2024-01-25T14:38:58;8.80;99.90
79049;DHT22;68680;50.764;6.120;2024-01-25T14:41:24;8.70;99.90
79049;DHT22;68680;50.764;6.120;2024-01-25T14:43:49;8.70;99.90
79049;DHT22;68680;50.764;6.120;2024-01-25T14:46:15;8.70;99.90
79049;DHT22;68680;50.764;6.120;2024-01-25T14:48:41;8.70;99.90
79049;DHT22;68680;50.764;6.120;2024-01-25T14:51:08;8.70;99.90
79049;DHT22;68680;50.764;6.120;2024-01-25T14:53:34;8.70;99.90
79049;DHT22;68680;50.764;6.120;2024-01-25T14:55:59;8.70;99.90
79049;DHT22;68680;50.764;6.120;2024-01-25T14:58:25;8.70;99.90
79049;DHT22;68680;50.764;6.120;2024-01-25T15:00:51;8.70;99.90
79049;DHT22;68680;50.764;6.120;2024-01-25T15:03:18;8.70;99.90
79049;DHT22;68680;50.764;6.120;2024-01-25T15:05:44;8.60;99.90
79049;DHT22;68680;50.764;6.120;2024-01-25T15:08:12;8.70;99.90
79049;DHT22;68680;50.764;6.120;2024-01-25T15:10:38;8.70;99.90
79049;DHT22;68680;50.764;6.120;2024-01-25T15:13:03;8.80;99.90
79049;DHT22;68680;50.764;6.120;2024-01-25T15:15:29;8.70;99.90
79049;DHT22;68680;50.764;6.120;2024-01-25T15:17:55;8.70;99.90
79049;DHT22;68680;50.764;6.120;2024-01-25T15:20:21;8.70;99.90
79049;DHT22;68680;50.764;6.120;2024-01-25T15:22:46;8.60;99.90
79049;DHT22;68680;50.764;6.120;2024-01-25T15:25:14;8.70;99.90
79049;DHT22;68680;50.764;6.120;2024-01-25T15:27:39;8.80;99.90
79049;DHT22;68680;50.764;6.120;2024-01-25T15:30:06;8.70;99.90
79049;DHT22;68680;50.764;6.120;2024-01-25T15:32:33;8.80;99.90
79049;DHT22;68680;50.764;6.120;2024-01-25T15:34:59;8.80;99.90
79049;DHT22;68680;50.764;6.120;2024-01-25T15:37:24;8.70;99.90